• Join FlightAware (Why Join?)
  • Login
  • US Flag 
10:19AM EST


 

Airport Tracker/Info


-or-


 

Live Flight TrackerFlight Track Log ✈ SWA1344 ✈ 29-Aug-2014 ✈ KPHX - KSFO

Flight Track Log - Related Links

Times and Time Zones

All times are in EDT time to prevent confusion due to time zone crossing. See the SWA1344 flight status page for this flight to view local times or setup timezone preferences in your user account.

Time Position Orientation Groundspeed Altitude Reporting Facility
EDT Latitude Longitude Course Direction KTS MPH feet Rate Location/Type
10:14PM 33.4333 -112.0333 253° West 183 211 2,000  Level Phoenix TRACON
10:15PM 33.4000 -112.1667 253° West 263 303 5,400 2,040 Climbing Phoenix TRACON
10:16PM 33.3833 -112.2333 253° West 293 337 7,200 2,460 Climbing Phoenix TRACON
10:17PM 33.3833 -112.3333 270° West 300 345 9,900 1,920 Climbing Phoenix TRACON
10:18PM 33.4025 -112.4269 284° West 318 366 11,000 1,800 Climbing Albuquerque Center
10:19PM 33.4178 -112.5478 279° West 361 415 13,500 2,100 Climbing Albuquerque Center
10:21PM 33.4483 -112.7919 279° West 367 422 17,600 2,040 Climbing Albuquerque Center
10:22PM 33.4700 -112.9178 282° West 377 434 19,900 1,860 Climbing Albuquerque Center
10:23PM 33.4964 -113.0456 284° West 388 447 21,500 1,680 Climbing Albuquerque Center
10:24PM 33.5200 -113.1753 282° West 395 455 23,400 1,800 Climbing Albuquerque Center
10:25PM 33.5511 -113.3322 283° West 401 461 25,200 1,380 Climbing Albuquerque Center
10:26PM 33.5764 -113.4669 283° West 411 473 26,300 1,080 Climbing Albuquerque Center
10:27PM 33.6025 -113.6067 283° West 425 489 27,500 1,200 Climbing Albuquerque Center
10:28PM 33.6300 -113.7547 283° West 435 501 28,800 1,500 Climbing Albuquerque Center
10:29PM 33.6558 -113.8967 282° West 437 503 30,600 1,620 Climbing Albuquerque Center
10:30PM 33.6806 -114.0336 282° West 426 490 32,200 1,380 Climbing Albuquerque Center
10:31PM 33.7178 -114.1628 289° West 414 476 33,500 840 Climbing Albuquerque Center
10:32PM 33.7631 -114.2808 295° West 413 475 34,000 240 Climbing Albuquerque Center
10:33PM 33.8169 -114.4308 293° West 411 473 34,000  Level Albuquerque Center
10:34PM 33.8617 -114.5572 293° West 411 473 34,000  Level Albuquerque Center
10:36PM 33.9114 -114.6958 293° West 411 473 34,000  Level Los Angeles Center
10:37PM 33.9561 -114.8197 294° West 408 470 34,000  Level Los Angeles Center
10:38PM 33.9997 -114.9442 293° West 407 468 34,000  Level Los Angeles Center
10:39PM 34.0536 -115.0939 294° West 406 467 34,000  Level Los Angeles Center
10:40PM 34.0961 -115.2183 292° West 406 467 34,000  Level Los Angeles Center
10:41PM 34.1408 -115.3428 294° West 406 467 34,000  Level Los Angeles Center
10:42PM 34.1828 -115.4675 292° West 406 467 34,000  Level Los Angeles Center
10:43PM 34.2264 -115.5919 293° West 405 466 34,000  Level Los Angeles Center
10:44PM 34.2781 -115.7400 293° West 400 460 34,000  Level Los Angeles Center
10:45PM 34.3214 -115.8658 293° West 404 465 34,000  Level Los Angeles Center
10:46PM 34.3628 -115.9864 293° West 407 468 34,000  Level Los Angeles Center
10:47PM 34.4067 -116.1125 293° West 409 471 34,000  Level Los Angeles Center
10:48PM 34.4497 -116.2408 292° West 410 472 34,000  Level Los Angeles Center
10:49PM 34.4944 -116.3689 293° West 410 472 34,000  Level Los Angeles Center
10:50PM 34.5456 -116.5236 292° West 412 474 34,000  Level Los Angeles Center
10:51PM 34.5897 -116.6514 293° West 412 474 34,000  Level Los Angeles Center
10:52PM 34.6322 -116.7803 292° West 412 474 34,000  Level Los Angeles Center
10:53PM 34.6747 -116.9083 292° West 412 474 34,000  Level Los Angeles Center
10:54PM 34.7175 -117.0361 292° West 411 473 34,000  Level Los Angeles Center
10:55PM 34.7594 -117.1650 292° West 410 472 34,000  Level Los Angeles Center
10:56PM 34.8097 -117.3194 292° West 409 471 34,000  Level Los Angeles Center
10:57PM 34.8522 -117.4492 292° West 409 471 34,000  Level Los Angeles Center
10:58PM 34.8939 -117.5808 291° West 410 472 34,000  Level Los Angeles Center
10:59PM 34.9350 -117.7161 290° West 419 482 34,000  Level Los Angeles Center
11:00PM 34.9814 -117.8450 294° West 416 479 34,000  Level Los Angeles Center
11:01PM 35.0231 -117.9758 291° West 414 476 34,000  Level Los Angeles Center
11:02PM 35.0650 -118.1058 292° West 421 484 34,000  Level Los Angeles Center
11:03PM 35.1067 -118.2342 292° West 409 471 34,000  Level Los Angeles Center
11:04PM 35.1478 -118.3631 291° West 409 471 34,000  Level Los Angeles Center
11:05PM 35.1967 -118.5161 291° West 405 466 34,000  Level Los Angeles Center
11:06PM 35.2333 -118.6442 289° West 398 458 34,000  Level Los Angeles Center
11:08PM 35.2758 -118.7742 292° West 405 466 34,000  Level Los Angeles Center
11:09PM 35.3158 -118.9031 291° West 405 466 34,000  Level Los Angeles Center
11:10PM 35.3569 -119.0314 291° West 406 467 34,000  Level Los Angeles Center
11:11PM 35.3964 -119.1606 291° West 406 467 34,000  Level Los Angeles Center
11:12PM 35.4442 -119.3153 291° West 406 467 34,000  Level Los Angeles Center
11:13PM 35.4569 -119.4531 277° West 411 473 34,000  Level Los Angeles Center
11:14PM 35.4664 -119.5897 275° West 406 467 34,000  Level Los Angeles Center
11:15PM 35.4747 -119.7275 274° West 406 467 34,000  Level Los Angeles Center
11:16PM 35.4939 -119.8631 280° West 403 464 34,000  Level Los Angeles Center
11:17PM 35.5442 -119.9853 297° West 404 465 34,000  Level Los Angeles Center
11:18PM 35.6028 -120.1347 296° West 406 467 34,000  Level Los Angeles Center
11:19PM 35.6514 -120.2583 296° West 407 468 34,000  Level Oakland Center
11:20PM 35.6994 -120.3833 295° West 407 468 34,000  Level Oakland Center
11:21PM 35.7478 -120.5083 296° West 407 468 34,000  Level Oakland Center
11:22PM 35.7961 -120.6336 295° West 408 470 34,000 -180 Level Oakland Center
11:23PM 35.8544 -120.7844 296° West 408 470 33,700 -660 Descending Oakland Center
11:24PM 35.9194 -120.8994 305° West 413 475 32,700 -1,020 Descending Oakland Center
11:25PM 36.0014 -121.0017 315° West 417 480 31,700 -960 Descending Oakland Center
11:26PM 36.0833 -121.1056 314° West 422 486 30,800 -960 Descending Oakland Center
11:27PM 36.1650 -121.2100 314° West 422 486 29,800 -1,020 Descending Oakland Center
11:28PM 36.2472 -121.3142 314° West 423 487 28,800 -1,020 Descending Oakland Center
11:29PM 36.3272 -121.4161 314° West 419 482 27,800 -1,020 Descending Oakland Center
11:30PM 36.4044 -121.5186 313° West 413 475 26,800 -1,200 Descending Oakland Center
11:31PM 36.4806 -121.6167 314° West 400 460 25,400 -1,920 Descending Oakland Center
11:32PM 36.5694 -121.7317 314° West 387 445 22,900 -2,220 Descending Oakland Center
11:33PM 36.6364 -121.8208 313° West 369 425 20,900 -1,980 Descending Oakland Center
11:34PM 36.6833 -121.8833 313° West 396 456 19,500 -1,980 Descending Northern Cal TRACON
11:35PM 36.7500 -121.9667 315° West 329 379 17,600 -1,920 Descending Northern Cal TRACON
11:36PM 36.8500 -122.0000 345° North 335 386 15,700 -1,980 Descending Northern Cal TRACON
11:37PM 36.9333 -122.0167 351° North 325 374 13,700 -1,800 Descending Northern Cal TRACON
11:38PM 37.0333 -122.0333 352° North 314 361 12,200 -1,560 Descending Northern Cal TRACON
11:39PM 37.1000 -122.0667 338° Northwest 305 351 10,600 -1,200 Descending Northern Cal TRACON
11:40PM 37.1833 -122.0833 351° North 273 314 9,800 -1,380 Descending Northern Cal TRACON
11:41PM 37.2667 -122.1000 351° North 278 320 7,900 -1,620 Descending Northern Cal TRACON
11:42PM 37.3333 -122.1167 349° North 275 316 6,600 -960 Descending Northern Cal TRACON
11:43PM 37.4000 -122.1333 349° North 249 287 6,000 -600 Descending Northern Cal TRACON
11:44PM 37.4667 -122.1500 349° North 227 261 5,400 -780 Descending Northern Cal TRACON
11:45PM 37.5167 -122.1833 332° Northwest 202 232 4,500 -1,020 Descending Northern Cal TRACON
11:45PM 37.5389 -122.1961 335° Northwest 203 234 3,900 -1,260 Descending Oakland Center
11:46PM 37.5625 -122.2472 300° West 181 208 2,600 -1,320 Descending Oakland Center
11:47PM 37.5814 -122.2894 299° West 159 183 1,300 -1,080 Descending Oakland Center
11:48PM 37.5997 -122.3306 299° West 145 167 500 -540 Descending Oakland Center
11:49PM 37.6219 -122.3808 299° West 142 163 300 -240 Descending Oakland Center
11:51PM 37.6167 -122.3667 North  Level FlightAware Approximate